Decoded Metar for VTSR (RANONG in THAILAND) (IATA:N/A) | Meteo·Mobile Aviation Weather
aviador You're here:

VTSR Decoded Metar

RANONG in THAILAND
Report Time2019-10-21 07:00:00
UTC Time2019-10-21 07:13:54
Flight Rules mvfr MVFR
WindVRB at 02 kt
Visibility9999 m
Phenomena:N/A
Clouds:Broken 020 Hf
Expected CloudBase > 2,000 ft AGL from Temp-Dew spread
Ceiling2,000 ft
Temp30°C (ISA +15)
Dew Point25°C (75% RH)
Heat Index36.3°C
QNH1008 hPa
Density Alt2,333 ft
Elevation26 ft
Report Wrong Elevation
Raw Report
VTSR 210700Z VRB02KT 9999 BKN020 30/25 Q1008 NOSIG=

Extra information for VTSR:More info

Metar Taf Metar & Taf Last 4 Metars F.Rules Stats Wind Profile Meteogram Temp Stats Airport Information Weather charts Add Link Nearby VenuesMetar ALERT Operation Metar Decoded Social comments